Time;durP1;ratioP1;P1;durP2;ratioP2;P2;SDS_P1;SDS_P2;PMS_P1;PMS_P2;Temp;Humidity;BMP_temperature;BMP_pressure;BME280_temperature;BME280_humidity;BME280_pressure;Samples;Min_cycle;Max_cycle;Signal;HPM_P1;HPM_P2
2021/09/11 00:00:18;;;;;;;29.15;11.53;;;;;;;11.43;66.89;100992.55;1673082;86;21207;-61
2021/09/11 00:02:51;;;;;;;25.97;11.00;;;;;;;11.38;66.94;100993.87;1674269;86;21258;-61
2021/09/11 00:05:24;;;;;;;;;;;;;;;11.33;66.97;100994.24;1675651;86;21243;-60
2021/09/11 00:07:57;;;;;;;23.57;10.60;;;;;;;11.28;67.01;100984.59;1673833;86;20243;-61
2021/09/11 00:10:32;;;;;;;22.45;11.05;;;;;;;11.24;67.28;100994.98;1672828;86;21745;-61
2021/09/11 00:13:05;;;;;;;25.57;11.57;;;;;;;11.23;67.49;100997.70;1674660;86;21781;-61
2021/09/11 00:15:38;;;;;;;;;;;;;;;11.22;67.62;100996.05;1675193;85;21174;-61
2021/09/11 00:18:12;;;;;;;24.35;11.38;;;;;;;11.20;67.71;100999.28;1672855;86;20180;-61
2021/09/11 00:20:46;;;;;;;31.73;11.55;;;;;;;11.15;67.84;101007.48;1672905;86;21234;-60
2021/09/11 00:23:19;;;;;;;27.93;10.87;;;;;;;11.12;67.92;101011.67;1674762;86;21322;-60
2021/09/11 00:25:52;;;;;;;27.60;12.55;;;;;;;11.12;68.00;101010.84;1673367;86;21338;-60
2021/09/11 00:28:26;;;;;;;30.80;12.23;;;;;;;11.05;68.46;101005.25;1674235;86;21450;-60
2021/09/11 00:30:59;;;;;;;27.77;11.55;;;;;;;11.05;68.46;101005.25;1672925;86;21711;-60
2021/09/11 00:33:32;;;;;;;27.40;12.57;;;;;;;11.06;68.53;101010.84;1673967;86;21278;-60
2021/09/11 00:36:05;;;;;;;;;;;;;;;11.04;68.61;101007.50;1676375;86;21491;-61
2021/09/11 00:38:39;;;;;;;30.48;11.70;;;;;;;11.04;68.71;101008.81;1674056;86;20557;-60
2021/09/11 00:41:12;;;;;;;32.08;12.58;;;;;;;11.01;68.89;101013.48;1673085;86;21303;-60
2021/09/11 00:43:51;;;;;;;27.73;11.77;;;;;;;11.00;68.97;101007.40;1674656;86;21148;-60
2021/09/11 00:46:25;;;;;;;31.27;12.50;;;;;;;10.99;69.00;101014.89;1674223;85;21313;-60
2021/09/11 00:48:58;;;;;;;27.50;12.65;;;;;;;11.01;69.26;101012.98;1670442;85;21286;-60
2021/09/11 00:51:32;;;;;;;35.00;13.53;;;;;;;11.02;69.49;101008.58;1671448;86;21322;-60
2021/09/11 00:54:04;;;;;;;;;;;;;;;11.05;69.69;101013.12;1673797;86;21706;-61
2021/09/11 00:56:37;;;;;;;42.45;14.68;;;;;;;11.08;69.75;101016.78;1671730;86;20183;-60
2021/09/11 00:59:11;;;;;;;23.57;11.90;;;;;;;11.07;69.83;101013.82;1669918;86;21163;-60
2021/09/11 01:01:45;;;;;;;26.33;11.10;;;;;;;11.06;69.81;101014.77;1671408;86;21161;-60
2021/09/11 01:04:19;;;;;;;25.85;10.40;;;;;;;11.05;69.84;101008.34;1669853;86;21164;-60
2021/09/11 01:06:53;;;;;;;37.15;11.78;;;;;;;11.01;69.89;101004.31;1671716;86;21203;-60
2021/09/11 01:09:26;;;;;;;35.85;12.75;;;;;;;11.01;69.93;101006.43;1670715;86;21350;-61
2021/09/11 01:12:00;;;;;;;23.85;11.45;;;;;;;10.99;69.85;101007.50;1670064;86;21235;-60
2021/09/11 01:14:33;;;;;;;25.77;11.25;;;;;;;10.94;69.71;101003.13;1671698;86;21326;-61
2021/09/11 01:17:07;;;;;;;18.60;8.90;;;;;;;10.88;69.55;101001.81;1671447;86;21223;-60
2021/09/11 01:19:40;;;;;;;25.50;12.13;;;;;;;10.83;69.63;101003.48;1668434;86;21266;-61
2021/09/11 01:22:15;;;;;;;27.85;11.25;;;;;;;10.82;69.90;101007.51;1671324;86;21519;-60
2021/09/11 01:25:03;;;;;;;30.12;12.23;;;;;;;10.79;70.06;101007.77;1671399;86;21180;-60
2021/09/11 01:27:35;;;;;;;28.27;12.07;;;;;;;10.76;70.28;101005.38;1671506;86;21294;-60
2021/09/11 01:30:14;;;;;;;;;;;;;;;10.75;70.56;101003.70;1672227;86;21167;-61
2021/09/11 01:32:47;;;;;;;26.57;11.50;;;;;;;10.75;70.72;101012.87;1671335;86;20239;-61
2021/09/11 01:35:21;;;;;;;29.00;11.70;;;;;;;10.74;70.97;101005.52;1671414;86;21836;-60
2021/09/11 01:37:54;;;;;;;31.12;11.05;;;;;;;10.74;71.17;101010.75;1671818;86;21266;-60
2021/09/11 01:40:27;;;;;;;33.90;12.75;;;;;;;10.75;71.24;101010.25;1670380;86;21318;-60
2021/09/11 01:43:00;;;;;;;32.40;12.40;;;;;;;10.75;71.29;101016.33;1671563;86;21275;-60
2021/09/11 01:45:34;;;;;;;27.77;11.40;;;;;;;10.74;71.32;101015.15;1671523;86;21857;-60
2021/09/11 01:48:07;;;;;;;31.93;12.03;;;;;;;10.74;71.38;101023.00;1671951;85;21806;-60
2021/09/11 01:50:40;;;;;;;23.40;10.90;;;;;;;10.73;71.43;101016.92;1686418;85;21709;-60
2021/09/11 01:53:13;;;;;;;30.10;11.13;;;;;;;10.75;71.54;101016.80;1687464;85;22084;-60
2021/09/11 01:55:47;;;;;;;25.57;11.08;;;;;;;10.74;71.61;101020.39;1687160;85;21293;-60
2021/09/11 01:58:20;;;;;;;25.75;11.88;;;;;;;10.75;71.64;101021.56;1687249;85;21286;-60
2021/09/11 02:00:53;;;;;;;27.27;12.18;;;;;;;10.76;71.72;101014.55;1686065;85;21207;-60
2021/09/11 02:03:26;;;;;;;27.40;12.60;;;;;;;10.77;71.75;101017.54;1687343;85;21332;-60
2021/09/11 02:06:00;;;;;;;27.62;11.90;;;;;;;10.78;71.79;101017.41;1686878;85;21349;-60
2021/09/11 02:08:33;;;;;;;26.73;11.00;;;;;;;10.79;71.79;101019.56;1687210;85;21317;-60
2021/09/11 02:11:06;;;;;;;24.98;11.48;;;;;;;10.79;71.76;101015.63;1686146;85;21235;-61
2021/09/11 02:13:39;;;;;;;25.47;11.40;;;;;;;10.79;71.81;101024.80;1687485;85;21168;-60
2021/09/11 02:16:13;;;;;;;;;;;;;;;10.79;71.90;101025.60;1687860;85;21515;-60
2021/09/11 02:18:46;;;;;;;25.10;11.10;;;;;;;10.81;71.98;101033.36;1664125;85;20175;-60
2021/09/11 02:21:20;;;;;;;;;;;;;;;10.78;72.04;101029.20;1687894;84;21174;-60
2021/09/11 02:23:54;;;;;;;23.50;11.12;;;;;;;10.79;72.13;101032.16;1687078;85;20215;-59
2021/09/11 02:26:28;;;;;;;17.20;10.10;;;;;;;10.77;72.24;101030.63;1685746;84;21174;-60
2021/09/11 02:29:02;;;;;;;20.03;11.00;;;;;;;10.76;72.32;101033.72;1687464;85;21686;-60
2021/09/11 02:31:35;;;;;;;21.30;10.50;;;;;;;10.76;72.32;101035.03;1686069;85;21306;-60
2021/09/11 02:34:08;;;;;;;21.53;11.63;;;;;;;10.77;72.39;101033.25;1687548;85;21326;-60
2021/09/11 02:36:41;;;;;;;26.73;12.13;;;;;;;10.76;72.44;101036.34;1686873;85;21289;-60
2021/09/11 02:39:14;;;;;;;28.00;10.98;;;;;;;10.77;72.48;101035.88;1687042;85;21749;-60
2021/09/11 02:41:48;;;;;;;26.17;12.13;;;;;;;10.75;72.51;101032.04;1686149;85;21179;-60
2021/09/11 02:44:21;;;;;;;26.02;11.65;;;;;;;10.74;72.56;101036.10;1687043;85;21179;-60
2021/09/11 02:46:56;;;;;;;28.42;11.97;;;;;;;10.73;72.65;101035.26;1686598;85;21353;-60
2021/09/11 02:49:30;;;;;;;25.52;11.88;;;;;;;10.73;72.66;101039.19;1686144;85;21290;-60
2021/09/11 02:52:04;;;;;;;26.37;12.40;;;;;;;10.74;72.62;101039.56;1686038;85;21860;-60
2021/09/11 02:54:37;;;;;;;25.85;12.85;;;;;;;10.74;72.70;101041.34;1685619;84;21166;-60
2021/09/11 02:57:10;;;;;;;32.13;14.53;;;;;;;10.75;72.76;101046.45;1686997;85;21341;-60
2021/09/11 02:59:43;;;;;;;27.00;13.73;;;;;;;10.74;72.72;101046.11;1687186;85;21179;-60
2021/09/11 03:02:18;;;;;;;26.62;13.98;;;;;;;10.75;72.79;101052.16;1685684;85;21202;-60
2021/09/11 03:04:51;;;;;;;29.35;15.25;;;;;;;10.75;72.80;101049.53;1686962;85;21179;-60
2021/09/11 03:07:25;;;;;;;32.05;14.63;;;;;;;10.77;72.77;101047.66;1685641;85;21217;-60
2021/09/11 03:09:59;;;;;;;23.47;13.62;;;;;;;10.80;72.68;101050.02;1687045;85;21318;-60
2021/09/11 03:12:32;;;;;;;25.35;11.75;;;;;;;10.82;72.63;101052.88;1685987;85;21872;-60
2021/09/11 03:15:07;;;;;;;27.90;12.70;;;;;;;10.85;72.65;101054.42;1687335;85;21308;-60
2021/09/11 03:17:40;;;;;;;23.67;10.35;;;;;;;10.88;72.61;101052.05;1686641;85;21206;-60
2021/09/11 03:20:14;;;;;;;25.37;10.70;;;;;;;10.92;72.59;101050.37;1687274;85;21270;-60
2021/09/11 03:22:47;;;;;;;24.50;10.70;;;;;;;10.99;72.38;101050.26;1685818;85;21182;-60
2021/09/11 03:25:21;;;;;;;27.32;11.65;;;;;;;11.02;72.16;101054.43;1687118;85;21282;-60
2021/09/11 03:27:54;;;;;;;;;;;;;;;11.08;72.05;101056.59;1688281;85;21178;-60
2021/09/11 03:30:27;;;;;;;21.85;10.82;;;;;;;11.15;71.91;101065.14;1687020;85;20262;-60
2021/09/11 03:33:00;;;;;;;;;;;;;;;11.22;71.81;101058.95;1688172;85;21218;-60
2021/09/11 03:35:34;;;;;;;27.37;10.88;;;;;;;11.33;71.58;101066.33;1687222;85;20644;-63
2021/09/11 03:38:07;;;;;;;24.70;10.43;;;;;;;11.43;71.38;101072.98;1686711;85;21314;-60
2021/09/11 03:40:40;;;;;;;23.07;10.95;;;;;;;11.55;71.11;101073.33;1687176;85;21786;-60
2021/09/11 03:43:13;;;;;;;22.65;10.85;;;;;;;11.69;70.77;101072.25;1686790;85;21294;-60
2021/09/11 03:45:48;;;;;;;20.88;10.65;;;;;;;11.81;70.47;101075.20;1686998;85;21277;-60
2021/09/11 03:48:21;;;;;;;26.70;11.53;;;;;;;11.93;70.15;101068.48;1686801;85;21334;-60
2021/09/11 03:50:55;;;;;;;29.15;11.08;;;;;;;12.07;69.81;101073.44;1683133;85;21294;-60
2021/09/11 03:53:28;;;;;;;29.48;10.45;;;;;;;12.24;69.38;101076.45;1670993;86;21313;-60
2021/09/11 03:56:01;;;;;;;;;;;;;;;12.43;68.97;101085.31;1672420;86;21171;-60
2021/09/11 03:58:35;;;;;;;28.83;10.63;;;;;;;12.60;68.56;101078.17;1670939;86;20180;-60
2021/09/11 04:01:08;;;;;;;;;;;;;;;12.78;68.21;101081.86;1672470;86;21159;-61
2021/09/11 04:03:42;;;;;;;21.97;10.32;;;;;;;13.00;67.72;101086.59;1670264;85;20203;-60
2021/09/11 04:06:15;;;;;;;18.32;8.85;;;;;;;13.19;67.35;101085.40;1671462;86;21346;-59
2021/09/11 04:08:49;;;;;;;19.55;11.38;;;;;;;13.47;66.92;101093.86;1671154;86;21338;-60
2021/09/11 04:11:23;;;;;;;19.98;10.63;;;;;;;14.09;66.20;101083.84;1669793;86;21168;-60
2021/09/11 04:13:56;;;;;;;17.00;9.47;;;;;;;15.06;64.34;101084.06;1671110;86;21306;-60
2021/09/11 04:16:29;;;;;;;21.30;8.65;;;;;;;15.93;61.88;101079.98;1671538;86;21327;-59
2021/09/11 04:19:03;;;;;;;21.35;9.70;;;;;;;16.55;59.75;101079.56;1669887;86;21761;-59
2021/09/11 04:21:36;;;;;;;16.87;9.87;;;;;;;17.33;57.52;101080.66;1671575;86;21199;-58
2021/09/11 04:24:10;;;;;;;18.12;9.55;;;;;;;18.16;55.02;101084.17;1671198;86;21436;-59
2021/09/11 04:26:44;;;;;;;15.30;9.60;;;;;;;18.95;52.60;101076.33;1671448;86;21160;-59
2021/09/11 04:29:17;;;;;;;22.62;9.33;;;;;;;19.62;50.42;101078.91;1670956;86;21167;-59
2021/09/11 04:31:50;;;;;;;19.48;9.28;;;;;;;20.21;48.25;101083.15;1671409;86;21330;-59
2021/09/11 04:34:23;;;;;;;13.65;8.08;;;;;;;20.75;46.79;101076.20;1670980;86;21298;-60
2021/09/11 04:36:56;;;;;;;16.00;8.35;;;;;;;21.37;45.20;101085.19;1671618;86;21814;-60
2021/09/11 04:39:31;;;;;;;20.85;9.68;;;;;;;21.93;43.65;101080.42;1669914;86;21178;-60
2021/09/11 04:42:05;;;;;;;15.28;8.30;;;;;;;22.48;42.35;101074.86;1671340;86;21170;-60
2021/09/11 04:44:37;;;;;;;;;;;;;;;22.99;40.99;101073.62;1666726;86;21333;-60
2021/09/11 04:47:10;;;;;;;16.27;8.30;;;;;;;23.89;38.81;101067.51;1663793;86;20570;-61
2021/09/11 04:49:43;;;;;;;15.20;8.68;;;;;;;23.89;38.81;101067.51;1659881;84;21178;-61
2021/09/11 04:52:16;;;;;;;21.33;10.48;;;;;;;24.40;37.93;101064.30;1670053;85;21350;-61
2021/09/11 04:54:49;;;;;;;18.27;10.32;;;;;;;24.88;36.78;101063.03;1670860;84;21825;-61
2021/09/11 04:57:23;;;;;;;16.32;8.85;;;;;;;25.32;35.81;101061.74;1669428;86;21432;-59
2021/09/11 04:59:56;;;;;;;13.78;8.00;;;;;;;25.74;35.06;101060.84;1669889;85;21202;-61
2021/09/11 05:02:29;;;;;;;12.98;8.63;;;;;;;26.23;34.11;101058.77;1643415;86;21172;-60
2021/09/11 05:05:04;;;;;;;13.22;7.75;;;;;;;26.69;33.17;101057.84;1666912;85;21301;-62
2021/09/11 05:07:39;;;;;;;14.33;8.73;;;;;;;27.10;32.25;101051.34;1643028;86;21732;-62
2021/09/11 05:10:13;;;;;;;14.85;8.73;;;;;;;27.38;31.85;101055.67;1668487;86;21361;-62
2021/09/11 05:12:45;;;;;;;;;;;;;;;27.78;31.09;101044.34;1645730;87;21232;-62
2021/09/11 05:15:19;;;;;;;14.33;7.95;;;;;;;28.18;30.51;101047.30;1669710;85;20670;-64
2021/09/11 05:17:52;;;;;;;12.20;7.40;;;;;;;28.55;30.18;101043.33;1633299;87;21334;-61
2021/09/11 05:20:26;;;;;;;16.48;7.33;;;;;;;29.01;29.51;101050.58;1650559;85;21189;-62
2021/09/11 05:22:59;;;;;;;17.50;8.60;;;;;;;29.45;28.69;101049.08;1650846;85;21233;-61
2021/09/11 05:25:33;;;;;;;14.20;8.28;;;;;;;29.83;27.97;101047.94;1681897;84;21179;-62
2021/09/11 05:28:06;;;;;;;;;;;;;;;30.13;27.72;101051.14;1700345;84;21278;-62
2021/09/11 05:30:39;;;;;;;16.23;6.62;;;;;;;30.55;27.23;101046.96;1698194;84;20200;-62
2021/09/11 05:33:13;;;;;;;10.32;7.00;;;;;;;30.85;26.79;101049.81;1697827;84;21361;-63
2021/09/11 05:35:45;;;;;;;;;;;;;;;31.25;26.24;101040.89;1700753;84;21341;-64
2021/09/11 05:38:17;;;;;;;11.55;7.40;;;;;;;31.69;25.86;101047.08;1699330;84;20236;-64
2021/09/11 05:40:51;;;;;;;16.12;7.33;;;;;;;32.01;25.45;101047.94;1695327;84;21270;-64
2021/09/11 05:43:24;;;;;;;12.43;7.72;;;;;;;32.47;24.96;101044.51;1663079;85;21293;-63
2021/09/11 05:45:58;;;;;;;12.85;7.60;;;;;;;32.89;24.34;101047.77;1626775;86;21296;-63
2021/09/11 05:48:34;;;;;;;10.75;6.70;;;;;;;33.21;23.99;101043.03;1698564;84;21197;-63
2021/09/11 05:51:06;;;;;;;16.32;7.35;;;;;;;33.58;23.54;101049.12;1669898;86;21309;-63
2021/09/11 05:53:40;;;;;;;11.80;6.87;;;;;;;34.01;23.05;101045.66;1662439;85;21414;-63
2021/09/11 05:56:13;;;;;;;11.35;6.55;;;;;;;34.40;22.66;101049.45;1661666;85;21957;-64
2021/09/11 05:58:46;;;;;;;16.02;6.40;;;;;;;34.73;22.34;101043.42;1654440;87;21280;-63
2021/09/11 06:01:19;;;;;;;12.03;7.42;;;;;;;35.09;21.93;101039.52;1654046;87;21272;-64
2021/09/11 06:03:53;;;;;;;12.90;6.72;;;;;;;35.58;21.54;101041.45;1643959;87;21316;-63
2021/09/11 06:06:26;;;;;;;11.57;6.80;;;;;;;36.03;20.99;101041.14;1648461;87;21244;-63
2021/09/11 06:09:00;;;;;;;12.03;7.25;;;;;;;36.32;20.64;101045.23;1632674;87;21360;-62
2021/09/11 06:11:33;;;;;;;14.73;7.87;;;;;;;36.69;20.39;101052.23;1638923;87;21174;-62
2021/09/11 06:14:07;;;;;;;12.37;7.55;;;;;;;37.06;20.03;101048.83;1631603;87;21162;-62
2021/09/11 06:16:40;;;;;;;13.35;7.12;;;;;;;37.40;19.71;101042.67;1654992;87;21292;-62
2021/09/11 06:19:14;;;;;;;10.08;6.53;;;;;;;37.68;19.34;101045.79;1653593;87;21249;-62
2021/09/11 06:21:48;;;;;;;13.62;6.30;;;;;;;38.04;19.15;101047.42;1654445;87;21352;-62
2021/09/11 06:24:22;;;;;;;18.15;7.10;;;;;;;38.40;18.69;101050.37;1643194;87;21288;-62
2021/09/11 06:26:56;;;;;;;13.38;7.25;;;;;;;38.72;18.45;101052.23;1641834;87;21217;-63
2021/09/11 06:29:29;;;;;;;24.65;7.12;;;;;;;38.99;18.31;101051.67;1643989;85;21217;-63
2021/09/11 06:32:02;;;;;;;10.63;6.47;;;;;;;39.23;18.13;101054.75;1654432;87;21198;-63
2021/09/11 06:34:35;;;;;;;14.87;6.60;;;;;;;39.49;17.92;101049.77;1644213;85;21343;-63
2021/09/11 06:37:08;;;;;;;15.70;6.87;;;;;;;39.80;17.66;101053.99;1650298;87;21311;-63
2021/09/11 06:39:41;;;;;;;9.98;5.47;;;;;;;40.11;17.18;101056.25;1647129;87;21254;-65
2021/09/11 06:42:17;;;;;;;10.03;5.85;;;;;;;40.30;17.09;101051.36;1647323;85;21324;-63
2021/09/11 06:44:50;;;;;;;12.10;6.22;;;;;;;40.67;16.91;101054.78;1633796;87;21292;-64
2021/09/11 06:47:24;;;;;;;10.40;5.75;;;;;;;41.07;16.63;101052.27;1652980;86;21229;-63
2021/09/11 06:49:57;;;;;;;9.80;6.22;;;;;;;41.45;16.35;101055.24;1645173;85;21201;-63
2021/09/11 06:52:30;;;;;;;11.48;6.03;;;;;;;41.75;15.94;101050.75;1642259;87;21399;-63
2021/09/11 06:55:04;;;;;;;18.62;5.87;;;;;;;42.04;15.72;101043.41;1635630;86;21371;-64
2021/09/11 06:57:37;;;;;;;10.40;5.58;;;;;;;42.30;15.50;101048.07;1658133;85;21336;-64
2021/09/11 07:00:11;;;;;;;9.13;5.45;;;;;;;42.48;15.46;101046.86;1635321;86;21383;-63
2021/09/11 07:02:44;;;;;;;14.13;5.53;;;;;;;42.68;15.42;101050.28;1638373;86;21860;-63
2021/09/11 07:05:18;;;;;;;12.33;5.62;;;;;;;42.95;15.23;101049.01;1637280;87;21185;-63
2021/09/11 07:07:51;;;;;;;20.85;6.10;;;;;;;43.18;14.85;101048.95;1670578;86;21367;-63
2021/09/11 07:10:25;;;;;;;25.52;6.62;;;;;;;43.45;14.62;101042.92;1664490;86;21208;-64
2021/09/11 07:12:58;;;;;;;10.93;5.60;;;;;;;43.55;14.63;101042.52;1662104;86;21349;-64
2021/09/11 07:15:31;;;;;;;17.98;6.05;;;;;;;43.75;14.43;101038.96;1648827;86;21296;-64
2021/09/11 07:18:08;;;;;;;8.70;5.17;;;;;;;43.95;14.49;101038.09;1632021;86;21201;-64
2021/09/11 07:20:42;;;;;;;12.98;6.15;;;;;;;44.17;14.26;101043.81;1646217;86;21186;-68
2021/09/11 07:23:16;;;;;;;8.50;5.28;;;;;;;44.31;14.19;101042.12;1648622;85;21311;-69
2021/09/11 07:25:50;;;;;;;9.98;5.30;;;;;;;44.60;13.87;101038.59;1651806;85;21258;-65
2021/09/11 07:28:23;;;;;;;8.78;4.30;;;;;;;44.85;13.61;101035.84;1666214;84;21290;-68
2021/09/11 07:30:56;;;;;;;8.40;4.30;;;;;;;45.03;13.42;101038.00;1668588;84;21326;-70
2021/09/11 07:33:30;;;;;;;12.90;4.83;;;;;;;45.02;12.51;101035.59;1668439;84;21275;-67
2021/09/11 07:36:03;;;;;;;7.50;4.53;;;;;;;44.78;12.85;101038.56;1670377;84;21213;-67
2021/09/11 07:38:36;;;;;;;7.62;4.55;;;;;;;44.93;12.72;101038.47;1676133;84;21389;-69
2021/09/11 07:41:10;;;;;;;8.55;5.00;;;;;;;45.20;12.65;101036.35;1632393;86;21264;-66
2021/09/11 07:43:44;;;;;;;7.72;4.30;;;;;;;45.48;12.54;101030.29;1657990;86;21404;-63
2021/09/11 07:46:17;;;;;;;13.32;4.42;;;;;;;45.70;12.33;101035.88;1643519;86;21304;-64
2021/09/11 07:48:55;;;;;;;7.72;4.10;;;;;;;45.91;12.01;101028.14;1642095;86;21291;-68
2021/09/11 07:51:28;;;;;;;5.97;4.08;;;;;;;46.02;12.03;101029.86;1650150;85;21401;-65
2021/09/11 07:54:02;;;;;;;5.25;3.42;;;;;;;45.97;11.77;101030.92;1646458;85;21327;-66
2021/09/11 07:56:35;;;;;;;4.90;3.08;;;;;;;45.73;11.16;101027.45;1680632;84;21174;-65
2021/09/11 07:59:09;;;;;;;5.08;3.17;;;;;;;44.99;11.43;101023.84;1707627;83;21267;-65
2021/09/11 08:01:46;;;;;;;3.67;2.87;;;;;;;44.36;11.73;101018.41;1707391;83;21228;-65
2021/09/11 08:04:21;;;;;;;3.83;2.98;;;;;;;43.88;12.10;101014.39;1714255;83;21394;-66
2021/09/11 08:06:56;;;;;;;5.33;2.90;;;;;;;43.69;12.27;101015.48;1652182;86;21304;-66
2021/09/11 08:09:30;;;;;;;6.35;3.33;;;;;;;43.63;12.25;101010.49;1680352;84;21189;-67
2021/09/11 08:12:03;;;;;;;6.03;3.33;;;;;;;43.51;12.32;101013.45;1681908;85;21262;-65
2021/09/11 08:14:36;;;;;;;6.90;3.40;;;;;;;43.23;12.55;101011.55;1678183;85;21229;-63
2021/09/11 08:17:09;;;;;;;4.95;2.70;;;;;;;42.98;12.74;101010.59;1665113;85;21354;-63
2021/09/11 08:19:43;;;;;;;11.75;3.20;;;;;;;43.03;12.67;101012.34;1654637;86;21197;-62
2021/09/11 08:22:16;;;;;;;4.15;3.08;;;;;;;43.25;12.57;101010.08;1652948;85;21213;-63
2021/09/11 08:24:49;;;;;;;3.52;2.70;;;;;;;43.50;12.38;101002.73;1683748;84;21172;-65
2021/09/11 08:27:23;;;;;;;5.25;3.00;;;;;;;42.80;12.43;101009.86;1642521;86;21307;-64
2021/09/11 08:29:56;;;;;;;6.75;2.92;;;;;;;42.04;13.04;101011.77;1647866;85;22469;-65
2021/09/11 08:32:29;;;;;;;3.35;2.70;;;;;;;41.25;13.40;101000.31;1653614;86;21354;-63
2021/09/11 08:35:02;;;;;;;6.55;2.80;;;;;;;40.04;13.90;101003.78;1683243;84;21356;-63
2021/09/11 08:37:36;;;;;;;3.87;2.83;;;;;;;39.07;14.97;101009.08;1640849;86;21220;-61
2021/09/11 08:40:10;;;;;;;5.25;2.90;;;;;;;38.97;15.01;101008.73;1666972;86;21324;-67
2021/09/11 08:42:43;;;;;;;27.22;7.12;;;;;;;38.78;15.01;101014.07;1650340;86;21351;-66
2021/09/11 08:45:18;;;;;;;5.80;2.83;;;;;;;37.87;15.86;101003.42;1656509;85;21173;-63
2021/09/11 08:47:53;;;;;;;5.55;3.00;;;;;;;36.87;16.62;101002.91;1681789;85;21268;-63
2021/09/11 08:50:26;;;;;;;14.65;3.15;;;;;;;36.55;17.01;101006.83;1666165;84;21224;-64
2021/09/11 08:52:59;;;;;;;5.33;2.90;;;;;;;36.40;17.44;101007.23;1649557;86;21303;-67
2021/09/11 08:55:32;;;;;;;8.25;4.67;;;;;;;35.98;17.72;101007.11;1653281;86;22618;-66
2021/09/11 08:58:08;;;;;;;9.38;3.52;;;;;;;35.31;18.60;101009.19;1641477;86;21300;-65
2021/09/11 09:00:49;;;;;;;10.90;3.85;;;;;;;34.58;18.87;101011.39;1625652;86;21356;-66
2021/09/11 09:03:38;;;;;;;6.70;3.22;;;;;;;33.88;19.83;101003.55;1649942;86;21220;-64
2021/09/11 09:06:31;;;;;;;6.83;3.27;;;;;;;33.35;20.31;101006.70;1633957;86;21298;-65
2021/09/11 09:09:11;;;;;;;3.67;2.90;;;;;;;32.96;20.81;100998.95;1660204;86;21220;-63
2021/09/11 09:11:45;;;;;;;4.70;2.77;;;;;;;32.53;21.51;101004.70;1631618;87;21186;-63
2021/09/11 09:14:19;;;;;;;4.45;3.27;;;;;;;32.44;21.72;101001.66;1644485;87;21253;-63
2021/09/11 09:16:53;;;;;;;11.65;3.37;;;;;;;32.57;21.37;100990.92;1641127;87;21202;-64
2021/09/11 09:19:27;;;;;;;3.92;3.17;;;;;;;33.00;21.15;100987.87;1667910;86;21224;-65
2021/09/11 09:22:04;;;;;;;7.05;3.15;;;;;;;33.63;20.22;100990.76;1662586;86;21274;-61
2021/09/11 09:24:38;;;;;;;5.17;3.30;;;;;;;34.09;19.69;100985.34;1666493;86;21921;-61
2021/09/11 09:27:12;;;;;;;3.58;2.83;;;;;;;34.19;19.60;100990.23;1661338;86;21351;-60
2021/09/11 09:29:45;;;;;;;10.65;3.58;;;;;;;34.22;19.54;100983.44;1667073;86;21259;-61
2021/09/11 09:32:18;;;;;;;6.47;3.20;;;;;;;34.18;20.16;100980.44;1659377;86;21279;-60
2021/09/11 09:34:52;;;;;;;12.37;3.67;;;;;;;34.18;19.81;100977.72;1634324;86;21204;-60
2021/09/11 09:37:26;;;;;;;3.92;3.00;;;;;;;34.20;20.14;100974.75;1646351;87;21340;-59
2021/09/11 09:40:00;;;;;;;3.98;3.00;;;;;;;34.25;19.83;100972.81;1647453;86;21246;-59
2021/09/11 09:42:33;;;;;;;7.78;3.52;;;;;;;34.20;19.71;100976.91;1669787;85;21357;-62
2021/09/11 09:45:06;;;;;;;;;;;;;;;33.85;20.05;100973.66;1634021;87;21364;-62
2021/09/11 09:47:39;;;;;;;8.70;3.85;;;;;;;33.43;19.96;100974.43;1623959;88;20579;-62
2021/09/11 09:50:19;;;;;;;;;;;;;;;32.90;20.29;100965.30;1665026;84;21395;-67
2021/09/11 09:52:48;;;;;;;5.80;3.40;;;;;;;32.57;20.79;100958.39;1648914;84;20170;-61
2021/09/11 09:55:22;;;;;;;6.00;3.20;;;;;;;32.53;21.25;100970.82;1667239;84;21894;-66
2021/09/11 09:57:54;;;;;;;;;;;;;;;32.46;21.10;100966.97;1686559;84;21763;-59
2021/09/11 10:00:27;;;;;;;4.90;3.37;;;;;;;32.25;21.28;100955.74;1687734;84;20275;-60
2021/09/11 10:03:00;;;;;;;7.22;3.85;;;;;;;32.03;21.53;100952.34;1638626;87;21724;-60
2021/09/11 10:05:34;;;;;;;6.28;3.80;;;;;;;31.79;22.07;100965.40;1665419;84;21238;-59
2021/09/11 10:08:09;;;;;;;5.20;4.00;;;;;;;31.44;22.56;100966.44;1657055;86;21189;-67
2021/09/11 10:10:46;;;;;;;6.28;3.72;;;;;;;30.99;22.83;100953.23;1669363;86;21190;-65
2021/09/11 10:13:23;;;;;;;4.50;3.33;;;;;;;30.70;23.58;100946.36;1654557;86;21326;-64
2021/09/11 10:16:00;;;;;;;3.77;3.05;;;;;;;30.58;23.52;100943.78;1666261;86;21722;-68
2021/09/11 10:18:38;;;;;;;6.35;3.50;;;;;;;30.54;23.81;100944.01;1637763;87;21340;-68
2021/09/11 10:21:23;;;;;;;5.95;3.27;;;;;;;30.44;23.77;100948.45;1644672;86;21335;-64
2021/09/11 10:24:03;;;;;;;7.72;3.83;;;;;;;30.28;24.37;100937.95;1667753;84;21385;-65
2021/09/11 10:26:51;;;;;;;7.55;3.70;;;;;;;30.23;24.46;100947.33;1644244;85;21209;-66
2021/09/11 10:29:40;;;;;;;6.33;4.25;;;;;;;30.10;24.13;100946.30;1663269;86;21285;-65
2021/09/11 10:32:23;;;;;;;10.63;4.55;;;;;;;29.89;24.88;100937.09;1651484;85;21350;-65
2021/09/11 10:35:05;;;;;;;;;;;;;;;29.83;24.69;100944.02;1651708;85;21789;-61
2021/09/11 10:38:01;;;;;;;4.92;3.50;;;;;;;29.62;24.81;100948.73;1652113;86;20178;-62
2021/09/11 10:40:44;;;;;;;5.72;3.55;;;;;;;29.32;25.33;100939.59;1670775;86;21277;-63
2021/09/11 10:43:19;;;;;;;8.53;4.10;;;;;;;29.14;25.65;100947.83;1664220;85;21749;-62
2021/09/11 10:46:03;;;;;;;5.17;3.77;;;;;;;28.96;25.76;100938.08;1665588;86;21294;-61
2021/09/11 10:48:51;;;;;;;9.35;3.95;;;;;;;28.89;25.97;100933.88;1663548;84;21277;-62
2021/09/11 10:51:32;;;;;;;11.38;5.15;;;;;;;28.84;25.85;100935.12;1667267;86;21330;-61
2021/09/11 10:54:14;;;;;;;10.10;6.08;;;;;;;28.74;26.12;100922.26;1636759;86;21186;-63
2021/09/11 10:56:54;;;;;;;6.83;3.25;;;;;;;28.72;26.26;100924.90;1668683;86;21184;-64
2021/09/11 10:59:41;;;;;;;15.75;4.50;;;;;;;28.69;26.41;100916.23;1649524;86;21901;-62
2021/09/11 11:02:39;;;;;;;7.92;3.87;;;;;;;28.73;27.04;100924.68;1641859;85;21312;-67
2021/09/11 11:05:17;;;;;;;10.05;3.75;;;;;;;28.69;27.37;100917.59;1633711;86;21400;-64
2021/09/11 11:07:50;;;;;;;10.75;4.20;;;;;;;28.53;27.35;100926.91;1639171;87;21389;-67
2021/09/11 11:10:23;;;;;;;6.22;3.70;;;;;;;28.36;27.80;100920.61;1660408;86;21791;-66
2021/09/11 11:12:57;;;;;;;9.83;4.12;;;;;;;28.27;27.68;100916.64;1659994;84;21361;-63
2021/09/11 11:15:29;;;;;;;6.60;3.05;;;;;;;28.17;27.93;100921.27;1658880;84;21338;-64
2021/09/11 11:18:03;;;;;;;7.15;3.75;;;;;;;28.05;28.10;100923.15;1665210;84;21335;-61
2021/09/11 11:20:37;;;;;;;5.00;3.62;;;;;;;27.98;28.15;100925.94;1637368;87;21310;-62
2021/09/11 11:23:10;;;;;;;10.15;3.20;;;;;;;27.89;28.10;100927.86;1659069;84;21272;-62
2021/09/11 11:25:43;;;;;;;7.22;3.60;;;;;;;27.76;28.27;100922.68;1642611;86;21315;-64
2021/09/11 11:28:18;;;;;;;5.90;3.37;;;;;;;27.60;28.62;100922.84;1634957;87;21344;-61
2021/09/11 11:30:51;;;;;;;14.18;3.83;;;;;;;27.47;29.01;100919.52;1615954;87;21969;-65
2021/09/11 11:33:24;;;;;;;9.03;3.90;;;;;;;27.33;29.28;100923.73;1604716;87;21860;-62
2021/09/11 11:36:00;;;;;;;;;;;;;;;27.30;29.21;100918.81;1646416;87;21278;-61
2021/09/11 11:38:34;;;;;;;10.70;4.05;;;;;;;27.31;29.56;100920.98;1635216;87;20309;-65
2021/09/11 11:41:07;;;;;;;8.63;3.67;;;;;;;27.25;29.58;100917.88;1628806;86;21264;-62
2021/09/11 11:43:41;;;;;;;5.22;3.33;;;;;;;27.18;29.82;100917.12;1639222;86;21221;-60
2021/09/11 11:46:15;;;;;;;6.90;3.42;;;;;;;27.11;29.68;100915.05;1634137;87;21206;-62
2021/09/11 11:48:49;;;;;;;7.83;3.58;;;;;;;27.07;29.75;100912.02;1634307;86;21193;-64
2021/09/11 11:51:22;;;;;;;8.05;3.50;;;;;;;27.07;29.70;100903.95;1640783;86;21383;-65
2021/09/11 11:53:56;;;;;;;8.78;3.80;;;;;;;27.10;29.84;100903.52;1646545;87;21316;-61